createdAt,value
2018-07-13T00:00:05.581Z,979.41
2018-07-13T00:01:05.448Z,979.36
2018-07-13T00:02:05.431Z,979.27
2018-07-13T00:03:05.326Z,979.33
2018-07-13T00:04:05.673Z,979.33
2018-07-13T00:05:05.198Z,979.39
2018-07-13T00:06:05.177Z,979.42
2018-07-13T00:07:06.279Z,979.45
2018-07-13T00:08:05.222Z,979.42
2018-07-13T00:09:05.092Z,979.33
2018-07-13T00:10:04.886Z,979.36
2018-07-13T00:11:05.650Z,979.28
2018-07-13T00:12:05.242Z,979.34
2018-07-13T00:13:05.669Z,979.36
2018-07-13T00:14:05.021Z,979.48
2018-07-13T00:15:05.272Z,979.39
2018-07-13T00:16:05.421Z,979.22
2018-07-13T00:17:05.235Z,979.34
2018-07-13T00:18:05.302Z,979.16
2018-07-13T00:19:05.403Z,979.28
2018-07-13T00:20:04.994Z,979.34
2018-07-13T00:21:05.451Z,979.45
2018-07-13T00:22:05.076Z,979.19
2018-07-13T00:23:05.865Z,979.34
2018-07-13T00:24:05.281Z,979.28
2018-07-13T00:25:05.210Z,979.31
2018-07-13T00:26:05.482Z,979.28
2018-07-13T00:27:05.264Z,979.19
2018-07-13T00:28:05.550Z,979.25
2018-07-13T00:29:05.987Z,979.22
2018-07-13T00:30:05.565Z,979.28
2018-07-13T00:31:05.559Z,979.16
2018-07-13T00:32:05.177Z,979.16
2018-07-13T00:33:05.108Z,979.19
2018-07-13T00:34:05.753Z,979.31
2018-07-13T00:35:04.940Z,979.28
2018-07-13T00:36:05.273Z,979.28
2018-07-13T00:37:05.621Z,979.19
2018-07-13T00:38:05.668Z,979.31
2018-07-13T00:39:05.416Z,979.42
2018-07-13T00:40:05.092Z,979.22
2018-07-13T00:41:05.564Z,979.42
2018-07-13T00:42:04.925Z,979.40
2018-07-13T00:43:05.408Z,979.45
2018-07-13T00:44:05.599Z,979.40
2018-07-13T00:45:05.873Z,979.42
2018-07-13T00:46:05.760Z,979.28
2018-07-13T00:47:05.367Z,979.45
2018-07-13T00:48:05.508Z,979.43
2018-07-13T00:49:05.037Z,979.37
2018-07-13T00:50:05.636Z,979.43
2018-07-13T00:51:04.972Z,979.34
2018-07-13T00:52:06.144Z,979.37
2018-07-13T00:53:05.197Z,979.46
2018-07-13T00:54:05.392Z,979.43
2018-07-13T00:55:05.412Z,979.25
2018-07-13T00:56:05.196Z,979.34
2018-07-13T00:57:04.919Z,979.31
2018-07-13T00:58:05.637Z,979.52
2018-07-13T00:59:05.352Z,979.35
2018-07-13T01:00:05.635Z,979.40
2018-07-13T01:01:05.085Z,979.26
2018-07-13T01:02:04.908Z,979.43
2018-07-13T01:03:05.296Z,979.32
2018-07-13T01:04:06.229Z,979.35
2018-07-13T01:05:05.331Z,979.35
2018-07-13T01:06:06.684Z,979.26
2018-07-13T01:07:06.276Z,979.29
2018-07-13T01:08:05.867Z,979.32
2018-07-13T01:09:05.434Z,979.32
2018-07-13T01:10:05.117Z,979.29
2018-07-13T01:11:05.175Z,979.32
2018-07-13T01:12:05.217Z,979.15
2018-07-13T01:13:05.374Z,979.35
2018-07-13T01:14:10.486Z,979.30
2018-07-13T01:15:05.259Z,979.21
2018-07-13T01:16:05.797Z,979.36
2018-07-13T01:17:05.658Z,979.38
2018-07-13T01:18:05.572Z,979.27
2018-07-13T01:19:04.851Z,979.33
2018-07-13T01:20:06.039Z,979.41
2018-07-13T01:21:05.318Z,979.50
2018-07-13T01:22:05.015Z,979.42
2018-07-13T01:23:10.771Z,979.45
2018-07-13T01:24:05.438Z,979.47
2018-07-13T01:25:04.939Z,979.59
2018-07-13T01:26:10.517Z,979.39
2018-07-13T01:27:05.437Z,979.47
2018-07-13T01:28:04.971Z,979.59
2018-07-13T01:29:05.019Z,979.36
2018-07-13T01:30:06.295Z,979.53
2018-07-13T01:31:04.993Z,979.48
2018-07-13T01:32:05.150Z,979.45
2018-07-13T01:33:05.818Z,979.42
2018-07-13T01:34:05.755Z,979.48
2018-07-13T01:35:05.654Z,979.53
2018-07-13T01:36:05.603Z,979.33
2018-07-13T01:37:06.104Z,979.45
2018-07-13T01:38:04.897Z,979.42
2018-07-13T01:39:05.355Z,979.42
2018-07-13T01:40:05.404Z,979.45
2018-07-13T01:41:05.171Z,979.36
2018-07-13T01:42:04.883Z,979.39
2018-07-13T01:43:05.712Z,979.51
2018-07-13T01:44:04.861Z,979.48
2018-07-13T01:45:05.234Z,979.40
2018-07-13T01:46:05.048Z,979.51
2018-07-13T01:47:15.394Z,979.43
2018-07-13T01:48:05.157Z,979.40
2018-07-13T01:49:05.195Z,979.40
2018-07-13T01:50:06.321Z,979.43
2018-07-13T01:51:05.691Z,979.40
2018-07-13T01:52:05.423Z,979.32
2018-07-13T01:53:05.800Z,979.34
2018-07-13T01:54:05.752Z,979.46
2018-07-13T01:55:05.763Z,979.43
2018-07-13T01:56:04.844Z,979.38
2018-07-13T01:57:05.499Z,979.43
2018-07-13T01:58:10.095Z,979.46
2018-07-13T01:59:04.908Z,979.43
2018-07-13T02:00:06.068Z,979.38
2018-07-13T02:01:05.641Z,979.58
2018-07-13T02:02:04.961Z,979.55
2018-07-13T02:03:04.918Z,979.41
2018-07-13T02:04:05.456Z,979.55
2018-07-13T02:05:05.256Z,979.58
2018-07-13T02:06:05.308Z,979.61
2018-07-13T02:07:05.215Z,979.52
2018-07-13T02:08:05.396Z,979.49
2018-07-13T02:09:05.256Z,979.49
2018-07-13T02:10:04.929Z,979.61
2018-07-13T02:11:05.795Z,979.55
2018-07-13T02:12:06.840Z,979.55
2018-07-13T02:13:10.563Z,979.49
2018-07-13T02:14:05.656Z,979.38
2018-07-13T02:15:04.937Z,979.52
2018-07-13T02:16:05.507Z,979.44
2018-07-13T02:17:05.230Z,979.44
2018-07-13T02:18:05.340Z,979.55
2018-07-13T02:19:05.369Z,979.64
2018-07-13T02:20:04.911Z,979.53
2018-07-13T02:21:05.510Z,979.67
2018-07-13T02:22:05.237Z,979.53
2018-07-13T02:23:05.800Z,979.50
2018-07-13T02:24:05.317Z,979.56
2018-07-13T02:25:05.184Z,979.59
2018-07-13T02:26:05.617Z,979.70
2018-07-13T02:27:05.332Z,979.59
2018-07-13T02:28:05.529Z,979.59
2018-07-13T02:29:05.409Z,979.62
2018-07-13T02:30:06.224Z,979.50
2018-07-13T02:31:05.665Z,979.59
2018-07-13T02:32:05.231Z,979.56
2018-07-13T02:33:06.016Z,979.62
2018-07-13T02:34:06.009Z,979.65
2018-07-13T02:35:06.392Z,979.62
2018-07-13T02:36:10.028Z,979.68
2018-07-13T02:37:04.872Z,979.68
2018-07-13T02:38:05.292Z,979.68
2018-07-13T02:39:08.533Z,979.71
2018-07-13T02:40:05.565Z,979.68
2018-07-13T02:41:04.978Z,979.65
2018-07-13T02:42:05.270Z,979.65
2018-07-13T02:43:04.873Z,979.71
2018-07-13T02:44:05.003Z,979.74
2018-07-13T02:45:05.409Z,979.79
2018-07-13T02:46:05.484Z,979.74
2018-07-13T02:47:05.584Z,979.62
2018-07-13T02:48:04.981Z,979.68
2018-07-13T02:49:04.946Z,979.77
2018-07-13T02:50:05.920Z,979.59
2018-07-13T02:51:05.325Z,979.80
2018-07-13T02:52:05.458Z,979.71
2018-07-13T02:53:05.329Z,979.80
2018-07-13T02:54:05.831Z,979.83
2018-07-13T02:55:05.700Z,979.74
2018-07-13T02:56:05.684Z,979.77
2018-07-13T02:57:05.459Z,979.87
2018-07-13T02:58:05.567Z,979.74
2018-07-13T02:59:05.896Z,979.74
2018-07-13T03:00:04.963Z,979.83
2018-07-13T03:01:05.491Z,979.90
2018-07-13T03:02:05.330Z,979.80
2018-07-13T03:03:05.306Z,979.88
2018-07-13T03:04:05.453Z,979.88
2018-07-13T03:05:10.181Z,979.94
2018-07-13T03:06:05.287Z,980.02
2018-07-13T03:07:05.598Z,979.91
2018-07-13T03:08:05.188Z,979.86
2018-07-13T03:09:05.834Z,980.05
2018-07-13T03:10:05.903Z,980.02
2018-07-13T03:11:05.729Z,980.02
2018-07-13T03:12:06.182Z,979.91
2018-07-13T03:13:05.096Z,979.91
2018-07-13T03:14:05.050Z,979.91
2018-07-13T03:15:05.793Z,980.00
2018-07-13T03:16:10.421Z,980.03
2018-07-13T03:17:06.765Z,980.00
2018-07-13T03:18:14.915Z,979.91
2018-07-13T03:19:05.772Z,979.97
2018-07-13T03:20:05.007Z,979.94
2018-07-13T03:21:04.939Z,980.09
2018-07-13T03:22:05.397Z,979.89
2018-07-13T03:23:05.161Z,979.97
2018-07-13T03:24:05.455Z,980.06
2018-07-13T03:25:05.199Z,980.00
2018-07-13T03:26:05.893Z,979.97
2018-07-13T03:27:10.596Z,980.00
2018-07-13T03:28:05.810Z,980.06
2018-07-13T03:29:04.993Z,979.97
2018-07-13T03:30:04.994Z,980.00
2018-07-13T03:31:05.459Z,980.06
2018-07-13T03:32:05.508Z,980.22
2018-07-13T03:33:05.769Z,980.00
2018-07-13T03:34:05.042Z,980.09
2018-07-13T03:35:05.610Z,980.09
2018-07-13T03:36:05.123Z,980.15
2018-07-13T03:37:05.732Z,980.12
2018-07-13T03:38:05.069Z,980.17
2018-07-13T03:39:04.946Z,980.17
2018-07-13T03:40:05.328Z,980.12
2018-07-13T03:41:05.279Z,980.25
2018-07-13T03:42:05.772Z,980.11
2018-07-13T03:43:05.354Z,980.17
2018-07-13T03:44:05.620Z,980.11
2018-07-13T03:45:05.858Z,980.17
2018-07-13T03:46:05.642Z,980.11
2018-07-13T03:47:05.294Z,980.25
2018-07-13T03:48:05.972Z,980.22
2018-07-13T03:49:05.863Z,980.31
2018-07-13T03:50:05.349Z,980.25
2018-07-13T03:51:05.139Z,980.14
2018-07-13T03:52:05.014Z,980.33
2018-07-13T03:53:10.401Z,980.25
2018-07-13T03:54:10.565Z,980.27
2018-07-13T03:55:05.792Z,980.27
2018-07-13T03:56:05.451Z,980.24
2018-07-13T03:57:05.197Z,980.33
2018-07-13T03:58:04.832Z,980.14
2018-07-13T03:59:05.401Z,980.38
2018-07-13T04:00:05.181Z,980.38
2018-07-13T04:01:05.416Z,980.44
2018-07-13T04:02:05.090Z,980.26
2018-07-13T04:03:04.874Z,980.37
2018-07-13T04:04:05.619Z,980.23
2018-07-13T04:05:06.551Z,980.34
2018-07-13T04:06:05.366Z,980.28
2018-07-13T04:07:06.249Z,980.27
2018-07-13T04:08:05.284Z,980.24
2018-07-13T04:09:06.069Z,980.32
2018-07-13T04:10:05.900Z,980.22
2018-07-13T04:11:09.937Z,980.39
2018-07-13T04:12:05.791Z,980.22
2018-07-13T04:13:05.247Z,980.35
2018-07-13T04:14:04.872Z,980.07
2018-07-13T04:15:04.982Z,980.26
2018-07-13T04:16:05.382Z,980.34
2018-07-13T04:17:05.388Z,980.34
2018-07-13T04:18:05.210Z,980.42
2018-07-13T04:19:05.779Z,980.38
2018-07-13T04:20:05.377Z,980.41
2018-07-13T04:21:04.947Z,980.40
2018-07-13T04:22:04.991Z,980.43
2018-07-13T04:23:05.063Z,980.31
2018-07-13T04:24:04.945Z,980.45
2018-07-13T04:25:06.326Z,980.41
2018-07-13T04:26:05.839Z,980.38
2018-07-13T04:27:05.441Z,980.26
2018-07-13T04:28:05.206Z,980.49
2018-07-13T04:29:05.204Z,980.28
2018-07-13T04:30:10.253Z,980.48
2018-07-13T04:31:05.199Z,980.33
2018-07-13T04:32:05.152Z,980.38
2018-07-13T04:33:05.643Z,980.49
2018-07-13T04:34:06.120Z,980.37
2018-07-13T04:35:05.340Z,980.40
2018-07-13T04:36:05.128Z,980.36
2018-07-13T04:37:05.589Z,980.51
2018-07-13T04:38:05.420Z,980.41
2018-07-13T04:39:05.533Z,980.30
2018-07-13T04:40:05.100Z,980.52
2018-07-13T04:41:05.831Z,980.43
2018-07-13T04:42:05.356Z,980.25
2018-07-13T04:43:05.031Z,980.37
2018-07-13T04:44:05.527Z,980.42
2018-07-13T04:45:05.545Z,980.44
2018-07-13T04:46:05.797Z,980.41
2018-07-13T04:47:05.717Z,980.41
2018-07-13T04:48:05.558Z,980.32
2018-07-13T04:49:06.302Z,980.37
2018-07-13T04:50:05.052Z,980.40
2018-07-13T04:51:05.827Z,980.36
2018-07-13T04:52:05.699Z,980.36
2018-07-13T04:53:05.500Z,980.36
2018-07-13T04:54:05.032Z,980.32
2018-07-13T04:55:05.715Z,980.29
2018-07-13T04:56:05.449Z,980.37
2018-07-13T04:57:05.716Z,980.31
2018-07-13T04:58:05.162Z,980.39
2018-07-13T04:59:05.790Z,980.28
2018-07-13T05:00:05.937Z,980.33
2018-07-13T05:01:10.040Z,980.41
2018-07-13T05:02:05.391Z,980.35
2018-07-13T05:03:05.081Z,980.35
2018-07-13T05:04:05.283Z,980.35
2018-07-13T05:05:05.958Z,980.46
2018-07-13T05:06:05.499Z,980.40
2018-07-13T05:07:05.053Z,980.28
2018-07-13T05:08:05.961Z,980.28
2018-07-13T05:09:05.013Z,980.42
2018-07-13T05:10:04.868Z,980.33
2018-07-13T05:11:05.488Z,980.41
2018-07-13T05:12:05.326Z,980.41
2018-07-13T05:13:05.165Z,980.41
2018-07-13T05:14:05.230Z,980.34
2018-07-13T05:15:05.551Z,980.34
2018-07-13T05:16:05.030Z,980.25
2018-07-13T05:17:05.459Z,980.28
2018-07-13T05:18:04.941Z,980.33
2018-07-13T05:19:05.916Z,980.30
2018-07-13T05:20:05.576Z,980.32
2018-07-13T05:21:05.182Z,980.35
2018-07-13T05:22:05.066Z,980.49
2018-07-13T05:23:06.010Z,980.37
2018-07-13T05:24:05.796Z,980.25
2018-07-13T05:25:05.053Z,980.37
2018-07-13T05:26:05.489Z,980.28
2018-07-13T05:27:05.226Z,980.37
2018-07-13T05:28:04.929Z,980.49
2018-07-13T05:29:05.959Z,980.41
2018-07-13T05:30:05.006Z,980.53
2018-07-13T05:31:05.671Z,980.56
2018-07-13T05:32:05.175Z,980.30
2018-07-13T05:33:04.911Z,980.39
2018-07-13T05:34:05.496Z,980.48
2018-07-13T05:35:04.894Z,980.42
2018-07-13T05:36:05.651Z,980.51
2018-07-13T05:37:05.875Z,980.33
2018-07-13T05:38:05.418Z,980.42
2018-07-13T05:39:05.413Z,980.42
2018-07-13T05:40:05.133Z,980.39
2018-07-13T05:41:06.952Z,980.47
2018-07-13T05:42:05.805Z,980.35
2018-07-13T05:43:05.470Z,980.47
2018-07-13T05:44:05.176Z,980.40
2018-07-13T05:45:05.218Z,980.55
2018-07-13T05:46:04.952Z,980.34
2018-07-13T05:47:05.627Z,980.54
2018-07-13T05:48:05.079Z,980.47
2018-07-13T05:49:05.044Z,980.38
2018-07-13T05:50:05.281Z,980.46
2018-07-13T05:51:05.691Z,980.55
2018-07-13T05:52:05.703Z,980.54
2018-07-13T05:53:05.755Z,980.51
2018-07-13T05:54:05.443Z,980.48
2018-07-13T05:55:06.087Z,980.45
2018-07-13T05:56:05.357Z,980.40
2018-07-13T05:57:05.364Z,980.46
2018-07-13T05:58:05.215Z,980.55
2018-07-13T05:59:05.320Z,980.55
2018-07-13T06:00:05.426Z,980.50
2018-07-13T06:01:05.536Z,980.47
2018-07-13T06:02:04.892Z,980.51
2018-07-13T06:03:05.616Z,980.57
2018-07-13T06:04:05.657Z,980.52
2018-07-13T06:05:05.195Z,980.43
2018-07-13T06:06:05.876Z,980.50
2018-07-13T06:07:05.375Z,980.53
2018-07-13T06:08:05.421Z,980.47
2018-07-13T06:09:04.891Z,980.62
2018-07-13T06:10:05.546Z,980.66
2018-07-13T06:11:05.733Z,980.66
2018-07-13T06:12:05.643Z,980.58
2018-07-13T06:13:05.258Z,980.64
2018-07-13T06:14:04.977Z,980.61
2018-07-13T06:15:06.038Z,980.68
2018-07-13T06:16:07.214Z,980.71
2018-07-13T06:17:05.142Z,980.68
2018-07-13T06:18:05.265Z,980.74
2018-07-13T06:19:05.155Z,980.66
2018-07-13T06:20:05.064Z,980.80
2018-07-13T06:21:05.044Z,980.69
2018-07-13T06:22:05.060Z,980.69
2018-07-13T06:23:05.276Z,980.86
2018-07-13T06:24:06.077Z,980.66
2018-07-13T06:25:10.797Z,980.72
2018-07-13T06:26:05.039Z,980.78
2018-07-13T06:27:05.504Z,980.78
2018-07-13T06:28:10.239Z,980.69
2018-07-13T06:29:05.551Z,980.63
2018-07-13T06:30:05.637Z,980.72
2018-07-13T06:31:06.669Z,980.77
2018-07-13T06:32:05.941Z,980.71
2018-07-13T06:33:05.129Z,980.77
2018-07-13T06:34:05.444Z,980.80
2018-07-13T06:35:05.445Z,980.68
2018-07-13T06:36:05.742Z,980.76
2018-07-13T06:37:05.268Z,980.67
2018-07-13T06:38:05.631Z,980.73
2018-07-13T06:39:05.383Z,980.79
2018-07-13T06:40:05.747Z,980.81
2018-07-13T06:41:05.388Z,980.72
2018-07-13T06:42:05.316Z,980.90
2018-07-13T06:43:05.617Z,980.83
2018-07-13T06:44:05.685Z,980.77
2018-07-13T06:45:05.586Z,980.68
2018-07-13T06:46:05.551Z,980.70
2018-07-13T06:47:05.516Z,980.82
2018-07-13T06:48:04.839Z,980.76
2018-07-13T06:49:05.668Z,980.75
2018-07-13T06:50:05.657Z,980.75
2018-07-13T06:51:05.485Z,980.72
2018-07-13T06:52:05.751Z,980.72
2018-07-13T06:53:06.092Z,980.81
2018-07-13T06:54:04.909Z,980.83
2018-07-13T06:55:05.361Z,980.80
2018-07-13T06:56:05.561Z,980.82
2018-07-13T06:57:05.545Z,980.85
2018-07-13T06:58:05.186Z,980.91
2018-07-13T06:59:05.713Z,980.87
2018-07-13T07:00:05.905Z,980.78
2018-07-13T07:01:05.847Z,980.90
2018-07-13T07:02:05.297Z,980.98
2018-07-13T07:03:06.288Z,980.89
2018-07-13T07:04:05.782Z,980.86
2018-07-13T07:05:05.325Z,980.95
2018-07-13T07:06:05.077Z,980.91
2018-07-13T07:07:04.982Z,980.79
2018-07-13T07:08:05.681Z,980.76
2018-07-13T07:09:05.097Z,980.85
2018-07-13T07:10:05.442Z,980.87
2018-07-13T07:11:06.192Z,980.90
2018-07-13T07:12:05.425Z,980.95
2018-07-13T07:13:05.530Z,980.86
2018-07-13T07:14:05.509Z,980.94
2018-07-13T07:15:05.524Z,980.85
2018-07-13T07:16:05.777Z,980.94
2018-07-13T07:17:05.133Z,980.96
2018-07-13T07:18:05.366Z,980.85
2018-07-13T07:19:05.252Z,980.93
2018-07-13T07:20:05.024Z,980.81
2018-07-13T07:21:05.696Z,980.81
2018-07-13T07:22:05.523Z,980.81
2018-07-13T07:23:05.365Z,980.84
2018-07-13T07:24:05.462Z,980.87
2018-07-13T07:25:05.831Z,980.99
2018-07-13T07:26:05.573Z,980.81
2018-07-13T07:27:05.012Z,980.87
2018-07-13T07:28:04.996Z,980.95
2018-07-13T07:29:05.593Z,980.78
2018-07-13T07:30:05.539Z,980.80
2018-07-13T07:31:05.541Z,980.86
2018-07-13T07:32:05.321Z,980.88
2018-07-13T07:33:05.355Z,980.82
2018-07-13T07:34:05.588Z,980.79
2018-07-13T07:35:05.027Z,980.73
2018-07-13T07:36:05.838Z,980.72
2018-07-13T07:37:05.413Z,980.69
2018-07-13T07:38:05.036Z,980.75
2018-07-13T07:39:05.401Z,980.68
2018-07-13T07:40:05.458Z,980.80
2018-07-13T07:41:08.616Z,980.80
2018-07-13T07:42:05.400Z,980.71
2018-07-13T07:43:04.960Z,980.74
2018-07-13T07:44:05.205Z,980.65
2018-07-13T07:45:04.994Z,980.74
2018-07-13T07:46:05.663Z,980.65
2018-07-13T07:47:05.237Z,980.77
2018-07-13T07:48:05.949Z,980.86
2018-07-13T07:49:05.388Z,980.74
2018-07-13T07:50:06.615Z,980.83
2018-07-13T07:51:05.681Z,980.80
2018-07-13T07:52:05.005Z,980.83
2018-07-13T07:53:04.940Z,980.83
2018-07-13T07:54:05.769Z,980.80
2018-07-13T07:55:06.683Z,980.77
2018-07-13T07:56:05.222Z,980.89
2018-07-13T07:57:05.284Z,980.86
2018-07-13T07:58:05.917Z,980.71
2018-07-13T07:59:05.293Z,980.91
2018-07-13T08:00:06.277Z,980.79
2018-07-13T08:01:05.196Z,980.88
2018-07-13T08:02:05.490Z,980.91
2018-07-13T08:03:05.761Z,980.82
2018-07-13T08:04:05.272Z,980.82
2018-07-13T08:05:06.138Z,980.93
2018-07-13T08:06:11.059Z,980.75
2018-07-13T08:07:06.705Z,980.87
2018-07-13T08:08:05.577Z,980.84
2018-07-13T08:09:05.484Z,980.75
2018-07-13T08:10:05.832Z,980.86
2018-07-13T08:11:05.288Z,980.80
2018-07-13T08:12:04.934Z,980.89
2018-07-13T08:13:05.904Z,980.89
2018-07-13T08:14:06.125Z,980.92
2018-07-13T08:15:06.017Z,980.80
2018-07-13T08:16:05.834Z,980.95
2018-07-13T08:17:05.252Z,980.92
2018-07-13T08:18:05.396Z,980.74
2018-07-13T08:19:05.210Z,980.85
2018-07-13T08:20:05.039Z,980.85
2018-07-13T08:21:05.382Z,980.82
2018-07-13T08:22:05.154Z,980.73
2018-07-13T08:23:05.131Z,980.82
2018-07-13T08:24:04.996Z,980.70
2018-07-13T08:25:05.705Z,980.73
2018-07-13T08:26:05.192Z,980.79
2018-07-13T08:27:05.242Z,980.76
2018-07-13T08:28:05.004Z,980.82
2018-07-13T08:29:05.516Z,980.82
2018-07-13T08:30:05.094Z,980.82
2018-07-13T08:31:05.782Z,980.79
2018-07-13T08:32:06.166Z,980.82
2018-07-13T08:33:05.458Z,980.73
2018-07-13T08:34:05.278Z,980.88
2018-07-13T08:35:05.388Z,980.79
2018-07-13T08:36:05.303Z,980.73
2018-07-13T08:37:05.000Z,980.76
2018-07-13T08:38:05.650Z,980.82
2018-07-13T08:39:05.059Z,980.79
2018-07-13T08:40:05.307Z,980.73
2018-07-13T08:41:05.046Z,980.93
2018-07-13T08:42:05.077Z,980.76
2018-07-13T08:43:05.081Z,980.73
2018-07-13T08:44:05.647Z,980.84
2018-07-13T08:45:05.465Z,980.64
2018-07-13T08:46:04.885Z,980.90
2018-07-13T08:47:05.001Z,980.67
2018-07-13T08:48:05.687Z,980.67
2018-07-13T08:49:05.283Z,980.87
2018-07-13T08:50:05.099Z,980.84
2018-07-13T08:51:05.493Z,980.60
2018-07-13T08:52:05.232Z,980.78
2018-07-13T08:53:06.371Z,980.66
2018-07-13T08:54:05.261Z,980.75
2018-07-13T08:55:05.330Z,980.78
2018-07-13T08:56:10.361Z,980.72
2018-07-13T08:57:05.175Z,980.75
2018-07-13T08:58:05.014Z,980.75
2018-07-13T08:59:04.974Z,980.69
2018-07-13T09:00:10.796Z,980.69
2018-07-13T09:01:05.773Z,980.60
2018-07-13T09:02:06.126Z,980.69
2018-07-13T09:03:05.197Z,980.75
2018-07-13T09:04:10.277Z,980.72
2018-07-13T09:05:05.411Z,980.81
2018-07-13T09:06:05.668Z,980.69
2018-07-13T09:07:05.148Z,980.80
2018-07-13T09:08:05.868Z,980.77
2018-07-13T09:09:05.301Z,980.89
2018-07-13T09:10:05.337Z,980.77
2018-07-13T09:11:05.593Z,980.83
2018-07-13T09:12:05.607Z,980.80
2018-07-13T09:13:05.453Z,980.80
2018-07-13T09:14:05.531Z,980.83
2018-07-13T09:15:06.431Z,980.77
2018-07-13T09:16:04.929Z,980.62
2018-07-13T09:17:05.553Z,980.77
2018-07-13T09:18:05.905Z,980.74
2018-07-13T09:19:05.510Z,980.74
2018-07-13T09:20:06.545Z,980.74
2018-07-13T09:21:05.207Z,980.77
2018-07-13T09:22:05.273Z,980.74
2018-07-13T09:23:05.155Z,980.77
2018-07-13T09:24:05.573Z,980.80
2018-07-13T09:25:05.110Z,980.79
2018-07-13T09:26:05.759Z,980.76
2018-07-13T09:27:06.058Z,980.76
2018-07-13T09:28:05.954Z,980.82
2018-07-13T09:29:06.165Z,980.79
2018-07-13T09:30:05.061Z,980.73
2018-07-13T09:31:05.640Z,980.73
2018-07-13T09:32:05.269Z,980.67
2018-07-13T09:33:05.921Z,980.82
2018-07-13T09:34:05.812Z,980.70
2018-07-13T09:35:05.719Z,980.76
2018-07-13T09:36:05.816Z,980.70
2018-07-13T09:37:10.848Z,980.76
2018-07-13T09:38:05.114Z,980.79
2018-07-13T09:39:05.483Z,980.70
2018-07-13T09:40:05.286Z,980.73
2018-07-13T09:41:05.362Z,980.82
2018-07-13T09:42:04.896Z,980.82
2018-07-13T09:43:05.542Z,980.88
2018-07-13T09:44:05.246Z,980.84
2018-07-13T09:45:04.877Z,980.81
2018-07-13T09:46:05.820Z,980.87
2018-07-13T09:47:05.956Z,980.84
2018-07-13T09:48:04.970Z,980.81
2018-07-13T09:49:06.000Z,980.90
2018-07-13T09:50:10.650Z,980.80
2018-07-13T09:51:05.343Z,980.77
2018-07-13T09:52:05.051Z,980.71
2018-07-13T09:53:05.732Z,980.71
2018-07-13T09:54:05.326Z,980.83
2018-07-13T09:55:05.280Z,980.83
2018-07-13T09:56:05.146Z,980.65
2018-07-13T09:57:05.669Z,980.70
2018-07-13T09:58:05.746Z,980.76
2018-07-13T09:59:05.552Z,980.64
2018-07-13T10:00:05.309Z,980.73
2018-07-13T10:01:05.741Z,980.67
2018-07-13T10:02:05.715Z,980.76
2018-07-13T10:03:05.303Z,980.79
2018-07-13T10:04:05.144Z,980.73
2018-07-13T10:05:06.030Z,980.79
2018-07-13T10:06:05.661Z,980.80
2018-07-13T10:07:05.176Z,980.80
2018-07-13T10:08:05.662Z,980.71
2018-07-13T10:09:05.394Z,980.84
2018-07-13T10:10:05.276Z,980.72
2018-07-13T10:11:05.076Z,980.78
2018-07-13T10:12:05.938Z,980.73
2018-07-13T10:13:05.738Z,980.73
2018-07-13T10:14:05.132Z,980.77
2018-07-13T10:15:05.055Z,980.83
2018-07-13T10:16:10.070Z,980.83
2018-07-13T10:17:05.159Z,980.75
2018-07-13T10:18:05.669Z,980.78
2018-07-13T10:19:05.616Z,980.81
2018-07-13T10:20:06.301Z,980.82
2018-07-13T10:21:06.849Z,980.82
2018-07-13T10:22:05.013Z,980.71
2018-07-13T10:23:05.500Z,980.71
2018-07-13T10:24:05.112Z,980.77
2018-07-13T10:25:05.857Z,980.74
2018-07-13T10:26:05.744Z,980.78
2018-07-13T10:27:05.245Z,980.63
2018-07-13T10:28:05.751Z,980.72
2018-07-13T10:29:05.028Z,980.63
2018-07-13T10:30:05.768Z,980.78
2018-07-13T10:31:05.169Z,980.69
2018-07-13T10:32:05.717Z,980.61
2018-07-13T10:33:05.142Z,980.58
2018-07-13T10:34:05.030Z,980.61
2018-07-13T10:35:05.577Z,980.64
2018-07-13T10:36:10.266Z,980.52
2018-07-13T10:37:05.529Z,980.51
2018-07-13T10:38:05.034Z,980.57
2018-07-13T10:39:06.106Z,980.51
2018-07-13T10:40:04.933Z,980.65
2018-07-13T10:41:05.601Z,980.59
2018-07-13T10:42:04.940Z,980.62
2018-07-13T10:43:05.586Z,980.50
2018-07-13T10:44:05.422Z,980.70
2018-07-13T10:45:10.241Z,980.59
2018-07-13T10:46:05.606Z,980.65
2018-07-13T10:47:05.722Z,980.62
2018-07-13T10:48:05.417Z,980.74
2018-07-13T10:49:05.000Z,980.65
2018-07-13T10:50:05.105Z,980.68
2018-07-13T10:51:05.023Z,980.62
2018-07-13T10:52:05.973Z,980.61
2018-07-13T10:53:05.646Z,980.61
2018-07-13T10:54:05.284Z,980.55
2018-07-13T10:55:04.854Z,980.61
2018-07-13T10:56:05.008Z,980.61
2018-07-13T10:57:05.666Z,980.63
2018-07-13T10:58:05.829Z,980.60
2018-07-13T10:59:04.983Z,980.63
2018-07-13T11:00:06.204Z,980.61
2018-07-13T11:01:05.201Z,980.73
2018-07-13T11:02:05.621Z,980.67
2018-07-13T11:03:05.171Z,980.52
2018-07-13T11:04:05.283Z,980.58
2018-07-13T11:05:04.917Z,980.58
2018-07-13T11:06:09.147Z,980.59
2018-07-13T11:07:04.928Z,980.53
2018-07-13T11:08:05.803Z,980.50
2018-07-13T11:09:04.935Z,980.49
2018-07-13T11:10:10.635Z,980.46
2018-07-13T11:11:05.485Z,980.55
2018-07-13T11:12:05.484Z,980.54
2018-07-13T11:13:05.626Z,980.51
2018-07-13T11:14:05.345Z,980.45
2018-07-13T11:15:05.368Z,980.53
2018-07-13T11:16:05.712Z,980.47
2018-07-13T11:17:10.385Z,980.53
2018-07-13T11:18:05.329Z,980.38
2018-07-13T11:19:05.306Z,980.41
2018-07-13T11:20:05.492Z,980.53
2018-07-13T11:21:05.168Z,980.50
2018-07-13T11:22:05.211Z,980.44
2018-07-13T11:23:05.791Z,980.48
2018-07-13T11:24:05.491Z,980.42
2018-07-13T11:25:05.829Z,980.37
2018-07-13T11:26:05.984Z,980.46
2018-07-13T11:27:05.119Z,980.46
2018-07-13T11:28:05.205Z,980.35
2018-07-13T11:29:05.220Z,980.35
2018-07-13T11:30:05.032Z,980.41
2018-07-13T11:31:05.340Z,980.35
2018-07-13T11:32:05.719Z,980.38
2018-07-13T11:33:05.870Z,980.50
2018-07-13T11:34:05.672Z,980.36
2018-07-13T11:35:05.035Z,980.54
2018-07-13T11:36:04.876Z,980.30
2018-07-13T11:37:06.291Z,980.36
2018-07-13T11:38:05.314Z,980.36
2018-07-13T11:39:05.528Z,980.39
2018-07-13T11:40:05.411Z,980.24
2018-07-13T11:41:04.970Z,980.29
2018-07-13T11:42:05.789Z,980.26
2018-07-13T11:43:05.076Z,980.12
2018-07-13T11:44:05.022Z,980.25
2018-07-13T11:45:05.920Z,980.30
2018-07-13T11:46:05.290Z,980.24
2018-07-13T11:47:05.202Z,980.27
2018-07-13T11:48:05.587Z,980.35
2018-07-13T11:49:05.323Z,980.23
2018-07-13T11:50:05.437Z,980.15
2018-07-13T11:51:05.032Z,980.26
2018-07-13T11:52:06.054Z,980.23
2018-07-13T11:53:10.943Z,980.35
2018-07-13T11:54:05.717Z,980.26
2018-07-13T11:55:05.316Z,980.15
2018-07-13T11:56:05.471Z,980.16
2018-07-13T11:57:05.439Z,980.24
2018-07-13T11:58:05.448Z,980.13
2018-07-13T11:59:05.258Z,980.21
2018-07-13T12:00:05.080Z,980.16
2018-07-13T12:01:05.401Z,980.07
2018-07-13T12:02:05.122Z,979.98
2018-07-13T12:03:05.732Z,980.03
2018-07-13T12:04:06.277Z,980.03
2018-07-13T12:05:04.979Z,979.91
2018-07-13T12:06:05.093Z,980.00
2018-07-13T12:07:05.000Z,980.14
2018-07-13T12:08:05.722Z,980.05
2018-07-13T12:09:05.477Z,979.99
2018-07-13T12:10:05.067Z,980.11
2018-07-13T12:11:05.752Z,980.08
2018-07-13T12:12:05.929Z,980.14
2018-07-13T12:13:04.918Z,980.05
2018-07-13T12:14:05.893Z,980.05
2018-07-13T12:15:05.319Z,980.05
2018-07-13T12:16:05.120Z,980.02
2018-07-13T12:17:06.020Z,980.11
2018-07-13T12:18:05.643Z,980.08
2018-07-13T12:19:05.771Z,980.08
2018-07-13T12:20:05.043Z,980.13
2018-07-13T12:21:05.118Z,980.01
2018-07-13T12:22:05.770Z,979.98
2018-07-13T12:23:06.006Z,979.98
2018-07-13T12:24:05.957Z,980.10
2018-07-13T12:25:05.521Z,980.07
2018-07-13T12:26:05.436Z,980.03
2018-07-13T12:27:05.829Z,979.91
2018-07-13T12:28:05.113Z,980.03